Weather at Beirut Rafic Hariri International Airport

Public forecast

Using degrees Celsius for public forecast. Weather courtesy of forecast.io.

Current aviation weather report (METAR) for Beirut Rafic Hariri International Airport

2024/06/15 05:00 (retrieved 37 minutes ago)

OLBA 150500Z 20006KT 8000 NSC 29/24 Q1007 NOSIG

Closest aviation forecast (TAF) to Beirut Rafic Hariri International Airport

Forecast is more than 6 hours old.

Closest forecast is Haifa International Airport, 64.7 nm (119.8 km) SSW.

2024/06/14 18:00 (retrieved 12 hours ago)

TAF LLHA 141706Z 1418/1518 32006KT CAVOK BECMG 1420/1423 8000 FEW008 PROB30 TEMPO 1501/1505 VRB03KT 5000 BR BKN006 BECMG 1506/1508 28010KT CAVOK BECMG 1515/1517 VRB03KT TX34/1511Z TN25/1503Z